sensor_id;sensor_type;location;lat;lon;timestamp;P1;durP1;ratioP1;P2;durP2;ratioP2
26062;SDS011;13837;48.562;12.108;2024-01-30T00:00:09;63.35;;;58.53;;
26062;SDS011;13837;48.562;12.108;2024-01-30T00:02:37;63.33;;;58.50;;
26062;SDS011;13837;48.562;12.108;2024-01-30T00:05:03;62.42;;;58.13;;
26062;SDS011;13837;48.562;12.108;2024-01-30T00:07:29;62.05;;;57.65;;
26062;SDS011;13837;48.562;12.108;2024-01-30T00:09:55;64.72;;;60.08;;
26062;SDS011;13837;48.562;12.108;2024-01-30T00:12:21;62.65;;;58.28;;
26062;SDS011;13837;48.562;12.108;2024-01-30T00:14:47;63.65;;;59.03;;
26062;SDS011;13837;48.562;12.108;2024-01-30T00:17:13;64.03;;;59.58;;
26062;SDS011;13837;48.562;12.108;2024-01-30T00:19:39;62.53;;;58.17;;
26062;SDS011;13837;48.562;12.108;2024-01-30T00:22:05;63.95;;;59.22;;
26062;SDS011;13837;48.562;12.108;2024-01-30T00:24:32;64.07;;;59.58;;
26062;SDS011;13837;48.562;12.108;2024-01-30T00:26:58;64.18;;;59.80;;
26062;SDS011;13837;48.562;12.108;2024-01-30T00:29:24;63.20;;;58.60;;
26062;SDS011;13837;48.562;12.108;2024-01-30T00:31:55;62.85;;;58.05;;
26062;SDS011;13837;48.562;12.108;2024-01-30T00:34:21;64.25;;;59.83;;
26062;SDS011;13837;48.562;12.108;2024-01-30T00:36:47;62.25;;;58.08;;
26062;SDS011;13837;48.562;12.108;2024-01-30T00:39:13;64.50;;;59.88;;
26062;SDS011;13837;48.562;12.108;2024-01-30T00:41:41;63.88;;;58.90;;
26062;SDS011;13837;48.562;12.108;2024-01-30T00:44:07;64.60;;;59.80;;
26062;SDS011;13837;48.562;12.108;2024-01-30T00:46:33;64.28;;;59.60;;
26062;SDS011;13837;48.562;12.108;2024-01-30T00:48:59;61.90;;;57.60;;
26062;SDS011;13837;48.562;12.108;2024-01-30T00:51:25;62.88;;;58.88;;
26062;SDS011;13837;48.562;12.108;2024-01-30T00:53:51;63.78;;;59.42;;
26062;SDS011;13837;48.562;12.108;2024-01-30T00:56:17;63.50;;;59.13;;
26062;SDS011;13837;48.562;12.108;2024-01-30T00:58:43;63.95;;;59.60;;
26062;SDS011;13837;48.562;12.108;2024-01-30T01:01:09;63.35;;;59.05;;
26062;SDS011;13837;48.562;12.108;2024-01-30T01:03:36;63.42;;;58.97;;
26062;SDS011;13837;48.562;12.108;2024-01-30T01:06:02;62.17;;;57.92;;
26062;SDS011;13837;48.562;12.108;2024-01-30T01:08:28;64.60;;;60.00;;
26062;SDS011;13837;48.562;12.108;2024-01-30T01:10:54;64.05;;;59.67;;
26062;SDS011;13837;48.562;12.108;2024-01-30T01:13:20;65.13;;;60.90;;
26062;SDS011;13837;48.562;12.108;2024-01-30T01:15:46;64.35;;;59.70;;
26062;SDS011;13837;48.562;12.108;2024-01-30T01:18:12;62.80;;;58.50;;
26062;SDS011;13837;48.562;12.108;2024-01-30T01:20:38;66.47;;;61.70;;
26062;SDS011;13837;48.562;12.108;2024-01-30T01:23:04;64.97;;;60.33;;
26062;SDS011;13837;48.562;12.108;2024-01-30T01:25:30;65.35;;;60.40;;
26062;SDS011;13837;48.562;12.108;2024-01-30T01:27:56;64.75;;;60.13;;
26062;SDS011;13837;48.562;12.108;2024-01-30T01:30:22;64.05;;;59.78;;
26062;SDS011;13837;48.562;12.108;2024-01-30T01:32:50;65.53;;;60.67;;
26062;SDS011;13837;48.562;12.108;2024-01-30T01:35:22;65.32;;;60.75;;
26062;SDS011;13837;48.562;12.108;2024-01-30T01:37:50;64.47;;;59.78;;
26062;SDS011;13837;48.562;12.108;2024-01-30T01:40:25;63.25;;;59.22;;
26062;SDS011;13837;48.562;12.108;2024-01-30T01:42:51;65.13;;;60.58;;
26062;SDS011;13837;48.562;12.108;2024-01-30T01:45:18;65.50;;;60.97;;
26062;SDS011;13837;48.562;12.108;2024-01-30T01:47:45;66.70;;;62.20;;
26062;SDS011;13837;48.562;12.108;2024-01-30T01:50:13;67.15;;;62.80;;
26062;SDS011;13837;48.562;12.108;2024-01-30T01:52:40;66.15;;;61.47;;
26062;SDS011;13837;48.562;12.108;2024-01-30T01:55:06;67.45;;;62.42;;
26062;SDS011;13837;48.562;12.108;2024-01-30T01:57:37;66.72;;;61.85;;
26062;SDS011;13837;48.562;12.108;2024-01-30T02:00:03;67.03;;;62.53;;
26062;SDS011;13837;48.562;12.108;2024-01-30T02:02:35;67.22;;;62.53;;
26062;SDS011;13837;48.562;12.108;2024-01-30T02:05:01;68.75;;;63.83;;
26062;SDS011;13837;48.562;12.108;2024-01-30T02:07:27;67.18;;;62.25;;
26062;SDS011;13837;48.562;12.108;2024-01-30T02:09:54;68.25;;;62.85;;
26062;SDS011;13837;48.562;12.108;2024-01-30T02:12:20;65.55;;;60.72;;
26062;SDS011;13837;48.562;12.108;2024-01-30T02:14:47;65.43;;;60.92;;
26062;SDS011;13837;48.562;12.108;2024-01-30T02:17:13;68.13;;;63.22;;
26062;SDS011;13837;48.562;12.108;2024-01-30T02:19:39;67.88;;;63.15;;
26062;SDS011;13837;48.562;12.108;2024-01-30T02:22:05;65.75;;;61.22;;
26062;SDS011;13837;48.562;12.108;2024-01-30T02:24:31;66.35;;;61.65;;
26062;SDS011;13837;48.562;12.108;2024-01-30T02:26:57;67.88;;;63.10;;
26062;SDS011;13837;48.562;12.108;2024-01-30T02:29:23;69.10;;;64.32;;
26062;SDS011;13837;48.562;12.108;2024-01-30T02:31:49;67.55;;;62.97;;
26062;SDS011;13837;48.562;12.108;2024-01-30T02:34:16;67.72;;;62.67;;
26062;SDS011;13837;48.562;12.108;2024-01-30T02:36:42;69.18;;;64.15;;
26062;SDS011;13837;48.562;12.108;2024-01-30T02:39:08;68.72;;;64.22;;
26062;SDS011;13837;48.562;12.108;2024-01-30T02:41:35;68.47;;;63.97;;
26062;SDS011;13837;48.562;12.108;2024-01-30T02:44:01;68.20;;;63.28;;
26062;SDS011;13837;48.562;12.108;2024-01-30T02:46:27;67.15;;;62.25;;
26062;SDS011;13837;48.562;12.108;2024-01-30T02:48:53;70.38;;;65.43;;
26062;SDS011;13837;48.562;12.108;2024-01-30T02:51:20;67.80;;;63.30;;
26062;SDS011;13837;48.562;12.108;2024-01-30T02:53:46;71.20;;;66.07;;
26062;SDS011;13837;48.562;12.108;2024-01-30T02:56:12;68.93;;;63.53;;
26062;SDS011;13837;48.562;12.108;2024-01-30T02:58:39;68.22;;;63.40;;
26062;SDS011;13837;48.562;12.108;2024-01-30T03:01:05;71.30;;;65.75;;
26062;SDS011;13837;48.562;12.108;2024-01-30T03:03:31;70.53;;;65.43;;
26062;SDS011;13837;48.562;12.108;2024-01-30T03:05:57;68.63;;;63.65;;
26062;SDS011;13837;48.562;12.108;2024-01-30T03:08:23;68.80;;;63.80;;
26062;SDS011;13837;48.562;12.108;2024-01-30T03:10:49;71.72;;;66.65;;
26062;SDS011;13837;48.562;12.108;2024-01-30T03:13:15;72.57;;;67.43;;
26062;SDS011;13837;48.562;12.108;2024-01-30T03:15:42;71.28;;;66.38;;
26062;SDS011;13837;48.562;12.108;2024-01-30T03:18:08;71.55;;;66.60;;
26062;SDS011;13837;48.562;12.108;2024-01-30T03:20:34;70.63;;;65.55;;
26062;SDS011;13837;48.562;12.108;2024-01-30T03:23:00;70.60;;;65.63;;
26062;SDS011;13837;48.562;12.108;2024-01-30T03:25:26;72.25;;;66.78;;
26062;SDS011;13837;48.562;12.108;2024-01-30T03:27:52;71.03;;;65.97;;
26062;SDS011;13837;48.562;12.108;2024-01-30T03:30:18;70.93;;;65.82;;
26062;SDS011;13837;48.562;12.108;2024-01-30T03:32:44;71.15;;;66.25;;
26062;SDS011;13837;48.562;12.108;2024-01-30T03:35:10;67.90;;;63.05;;
26062;SDS011;13837;48.562;12.108;2024-01-30T03:37:36;68.97;;;64.28;;
26062;SDS011;13837;48.562;12.108;2024-01-30T03:40:03;68.38;;;63.40;;
26062;SDS011;13837;48.562;12.108;2024-01-30T03:42:29;70.78;;;65.68;;
26062;SDS011;13837;48.562;12.108;2024-01-30T03:44:56;69.85;;;64.95;;
26062;SDS011;13837;48.562;12.108;2024-01-30T03:47:22;69.93;;;64.90;;
26062;SDS011;13837;48.562;12.108;2024-01-30T03:49:48;69.25;;;64.45;;
26062;SDS011;13837;48.562;12.108;2024-01-30T03:52:14;69.20;;;64.63;;
26062;SDS011;13837;48.562;12.108;2024-01-30T03:54:40;70.97;;;65.78;;
26062;SDS011;13837;48.562;12.108;2024-01-30T03:57:06;71.25;;;66.05;;
26062;SDS011;13837;48.562;12.108;2024-01-30T03:59:32;71.03;;;65.95;;
26062;SDS011;13837;48.562;12.108;2024-01-30T04:01:58;72.53;;;67.55;;
26062;SDS011;13837;48.562;12.108;2024-01-30T04:04:24;72.15;;;66.95;;
26062;SDS011;13837;48.562;12.108;2024-01-30T04:06:50;71.45;;;66.22;;
26062;SDS011;13837;48.562;12.108;2024-01-30T04:09:16;73.45;;;68.07;;
26062;SDS011;13837;48.562;12.108;2024-01-30T04:11:43;72.75;;;67.57;;
26062;SDS011;13837;48.562;12.108;2024-01-30T04:14:10;71.28;;;66.00;;
26062;SDS011;13837;48.562;12.108;2024-01-30T04:16:36;71.82;;;66.32;;
26062;SDS011;13837;48.562;12.108;2024-01-30T04:19:02;71.15;;;66.30;;
26062;SDS011;13837;48.562;12.108;2024-01-30T04:21:28;75.57;;;69.72;;
26062;SDS011;13837;48.562;12.108;2024-01-30T04:23:54;72.63;;;67.18;;
26062;SDS011;13837;48.562;12.108;2024-01-30T04:26:20;73.10;;;67.60;;
26062;SDS011;13837;48.562;12.108;2024-01-30T04:28:46;72.68;;;67.57;;
26062;SDS011;13837;48.562;12.108;2024-01-30T04:31:12;70.90;;;65.78;;
26062;SDS011;13837;48.562;12.108;2024-01-30T04:33:38;75.32;;;69.78;;
26062;SDS011;13837;48.562;12.108;2024-01-30T04:36:04;73.88;;;68.93;;
26062;SDS011;13837;48.562;12.108;2024-01-30T04:38:35;72.80;;;67.68;;
26062;SDS011;13837;48.562;12.108;2024-01-30T04:41:01;73.63;;;68.43;;
26062;SDS011;13837;48.562;12.108;2024-01-30T04:43:27;72.95;;;67.55;;
26062;SDS011;13837;48.562;12.108;2024-01-30T04:45:53;75.53;;;70.28;;
26062;SDS011;13837;48.562;12.108;2024-01-30T04:48:19;74.22;;;68.65;;
26062;SDS011;13837;48.562;12.108;2024-01-30T04:50:45;73.72;;;68.72;;
26062;SDS011;13837;48.562;12.108;2024-01-30T04:53:11;74.82;;;69.15;;
26062;SDS011;13837;48.562;12.108;2024-01-30T04:55:37;72.55;;;67.43;;
26062;SDS011;13837;48.562;12.108;2024-01-30T04:58:03;73.45;;;68.35;;
26062;SDS011;13837;48.562;12.108;2024-01-30T05:00:29;75.93;;;70.53;;
26062;SDS011;13837;48.562;12.108;2024-01-30T05:02:55;72.75;;;67.63;;
26062;SDS011;13837;48.562;12.108;2024-01-30T05:05:21;78.00;;;72.32;;
26062;SDS011;13837;48.562;12.108;2024-01-30T05:07:47;74.40;;;68.97;;
26062;SDS011;13837;48.562;12.108;2024-01-30T05:10:13;72.50;;;67.20;;
26062;SDS011;13837;48.562;12.108;2024-01-30T05:12:39;74.07;;;68.78;;
26062;SDS011;13837;48.562;12.108;2024-01-30T05:15:06;72.72;;;67.70;;
26062;SDS011;13837;48.562;12.108;2024-01-30T05:17:32;73.55;;;68.53;;
26062;SDS011;13837;48.562;12.108;2024-01-30T05:19:58;76.57;;;70.95;;
26062;SDS011;13837;48.562;12.108;2024-01-30T05:22:24;73.72;;;68.45;;
26062;SDS011;13837;48.562;12.108;2024-01-30T05:24:50;74.18;;;69.32;;
26062;SDS011;13837;48.562;12.108;2024-01-30T05:27:16;76.18;;;70.88;;
26062;SDS011;13837;48.562;12.108;2024-01-30T05:29:42;74.72;;;69.35;;
26062;SDS011;13837;48.562;12.108;2024-01-30T05:32:08;76.05;;;70.45;;
26062;SDS011;13837;48.562;12.108;2024-01-30T05:34:35;74.43;;;69.28;;
26062;SDS011;13837;48.562;12.108;2024-01-30T05:37:01;75.63;;;70.13;;
26062;SDS011;13837;48.562;12.108;2024-01-30T05:39:27;73.57;;;68.50;;
26062;SDS011;13837;48.562;12.108;2024-01-30T05:41:54;74.50;;;68.65;;
26062;SDS011;13837;48.562;12.108;2024-01-30T05:44:20;74.65;;;69.57;;
26062;SDS011;13837;48.562;12.108;2024-01-30T05:46:46;76.22;;;70.95;;
26062;SDS011;13837;48.562;12.108;2024-01-30T05:49:12;75.50;;;70.18;;
26062;SDS011;13837;48.562;12.108;2024-01-30T05:51:38;75.38;;;70.40;;
26062;SDS011;13837;48.562;12.108;2024-01-30T05:54:05;76.30;;;70.82;;
26062;SDS011;13837;48.562;12.108;2024-01-30T05:56:31;74.40;;;69.30;;
26062;SDS011;13837;48.562;12.108;2024-01-30T05:58:57;75.93;;;70.45;;
26062;SDS011;13837;48.562;12.108;2024-01-30T06:01:23;78.20;;;72.65;;
26062;SDS011;13837;48.562;12.108;2024-01-30T06:03:49;79.53;;;73.80;;
26062;SDS011;13837;48.562;12.108;2024-01-30T06:06:15;78.00;;;72.32;;
26062;SDS011;13837;48.562;12.108;2024-01-30T06:08:41;76.05;;;70.60;;
26062;SDS011;13837;48.562;12.108;2024-01-30T06:11:09;80.05;;;74.38;;
26062;SDS011;13837;48.562;12.108;2024-01-30T06:13:36;78.50;;;72.82;;
26062;SDS011;13837;48.562;12.108;2024-01-30T06:16:02;76.68;;;71.18;;
26062;SDS011;13837;48.562;12.108;2024-01-30T06:18:28;78.32;;;72.72;;
26062;SDS011;13837;48.562;12.108;2024-01-30T06:20:56;75.30;;;70.07;;
26062;SDS011;13837;48.562;12.108;2024-01-30T06:23:22;77.75;;;72.00;;
26062;SDS011;13837;48.562;12.108;2024-01-30T06:25:48;76.70;;;70.78;;
26062;SDS011;13837;48.562;12.108;2024-01-30T06:28:14;76.32;;;70.85;;
26062;SDS011;13837;48.562;12.108;2024-01-30T06:30:41;80.38;;;74.55;;
26062;SDS011;13837;48.562;12.108;2024-01-30T06:33:07;78.30;;;72.10;;
26062;SDS011;13837;48.562;12.108;2024-01-30T06:35:33;79.15;;;73.25;;
26062;SDS011;13837;48.562;12.108;2024-01-30T06:38:03;81.13;;;74.68;;
26062;SDS011;13837;48.562;12.108;2024-01-30T06:40:29;81.13;;;74.93;;
26062;SDS011;13837;48.562;12.108;2024-01-30T06:42:55;79.82;;;73.93;;
26062;SDS011;13837;48.562;12.108;2024-01-30T06:45:21;77.88;;;72.15;;
26062;SDS011;13837;48.562;12.108;2024-01-30T06:47:47;79.05;;;73.45;;
26062;SDS011;13837;48.562;12.108;2024-01-30T06:50:14;78.40;;;72.40;;
26062;SDS011;13837;48.562;12.108;2024-01-30T06:52:40;78.45;;;72.55;;
26062;SDS011;13837;48.562;12.108;2024-01-30T06:55:06;80.05;;;74.10;;
26062;SDS011;13837;48.562;12.108;2024-01-30T06:57:33;79.20;;;73.60;;
26062;SDS011;13837;48.562;12.108;2024-01-30T06:59:59;80.85;;;74.88;;
26062;SDS011;13837;48.562;12.108;2024-01-30T07:02:25;83.28;;;77.30;;
26062;SDS011;13837;48.562;12.108;2024-01-30T07:04:51;80.32;;;74.45;;
26062;SDS011;13837;48.562;12.108;2024-01-30T07:07:17;85.25;;;78.72;;
26062;SDS011;13837;48.562;12.108;2024-01-30T07:09:43;83.20;;;76.93;;
26062;SDS011;13837;48.562;12.108;2024-01-30T07:12:09;83.70;;;76.85;;
26062;SDS011;13837;48.562;12.108;2024-01-30T07:14:35;86.97;;;79.72;;
26062;SDS011;13837;48.562;12.108;2024-01-30T07:17:02;81.22;;;74.95;;
26062;SDS011;13837;48.562;12.108;2024-01-30T07:19:28;82.35;;;76.32;;
26062;SDS011;13837;48.562;12.108;2024-01-30T07:21:54;81.63;;;75.45;;
26062;SDS011;13837;48.562;12.108;2024-01-30T07:24:20;83.75;;;77.40;;
26062;SDS011;13837;48.562;12.108;2024-01-30T07:26:46;85.30;;;78.32;;
26062;SDS011;13837;48.562;12.108;2024-01-30T07:29:12;87.63;;;80.40;;
26062;SDS011;13837;48.562;12.108;2024-01-30T07:31:38;82.75;;;76.22;;
26062;SDS011;13837;48.562;12.108;2024-01-30T07:34:05;84.55;;;77.60;;
26062;SDS011;13837;48.562;12.108;2024-01-30T07:36:31;86.45;;;79.45;;
26062;SDS011;13837;48.562;12.108;2024-01-30T07:38:57;86.03;;;78.75;;
26062;SDS011;13837;48.562;12.108;2024-01-30T07:41:23;85.90;;;78.90;;
26062;SDS011;13837;48.562;12.108;2024-01-30T07:43:50;86.78;;;78.85;;
26062;SDS011;13837;48.562;12.108;2024-01-30T07:46:17;87.80;;;79.40;;
26062;SDS011;13837;48.562;12.108;2024-01-30T07:48:43;84.18;;;76.55;;
26062;SDS011;13837;48.562;12.108;2024-01-30T07:51:09;86.22;;;78.75;;
26062;SDS011;13837;48.562;12.108;2024-01-30T07:53:35;83.82;;;76.80;;
26062;SDS011;13837;48.562;12.108;2024-01-30T07:56:01;84.20;;;77.03;;
26062;SDS011;13837;48.562;12.108;2024-01-30T07:58:27;85.95;;;78.43;;
26062;SDS011;13837;48.562;12.108;2024-01-30T08:00:53;85.13;;;77.50;;
26062;SDS011;13837;48.562;12.108;2024-01-30T08:03:21;83.28;;;75.97;;
26062;SDS011;13837;48.562;12.108;2024-01-30T08:05:47;82.70;;;75.47;;
26062;SDS011;13837;48.562;12.108;2024-01-30T08:08:14;84.13;;;76.65;;
26062;SDS011;13837;48.562;12.108;2024-01-30T08:10:40;84.75;;;76.72;;
26062;SDS011;13837;48.562;12.108;2024-01-30T08:13:06;83.28;;;75.85;;
26062;SDS011;13837;48.562;12.108;2024-01-30T08:15:34;83.93;;;75.93;;
26062;SDS011;13837;48.562;12.108;2024-01-30T08:18:00;79.78;;;72.78;;
26062;SDS011;13837;48.562;12.108;2024-01-30T08:20:26;81.75;;;74.28;;
26062;SDS011;13837;48.562;12.108;2024-01-30T08:22:52;85.07;;;77.43;;
26062;SDS011;13837;48.562;12.108;2024-01-30T08:25:18;85.40;;;77.82;;
26062;SDS011;13837;48.562;12.108;2024-01-30T08:27:44;88.65;;;80.35;;
26062;SDS011;13837;48.562;12.108;2024-01-30T08:30:10;83.68;;;76.10;;
26062;SDS011;13837;48.562;12.108;2024-01-30T08:32:36;85.32;;;77.97;;
26062;SDS011;13837;48.562;12.108;2024-01-30T08:35:03;84.45;;;76.60;;
26062;SDS011;13837;48.562;12.108;2024-01-30T08:37:29;85.93;;;77.85;;
26062;SDS011;13837;48.562;12.108;2024-01-30T08:39:55;86.43;;;78.30;;
26062;SDS011;13837;48.562;12.108;2024-01-30T08:42:22;86.25;;;78.18;;
26062;SDS011;13837;48.562;12.108;2024-01-30T08:44:51;86.00;;;78.40;;
26062;SDS011;13837;48.562;12.108;2024-01-30T08:47:18;86.10;;;78.25;;
26062;SDS011;13837;48.562;12.108;2024-01-30T08:49:44;84.60;;;77.13;;
26062;SDS011;13837;48.562;12.108;2024-01-30T08:52:11;83.50;;;76.13;;
26062;SDS011;13837;48.562;12.108;2024-01-30T08:54:37;84.10;;;76.57;;
26062;SDS011;13837;48.562;12.108;2024-01-30T08:57:03;84.20;;;76.60;;
26062;SDS011;13837;48.562;12.108;2024-01-30T08:59:29;83.53;;;75.88;;
26062;SDS011;13837;48.562;12.108;2024-01-30T09:01:55;84.82;;;77.05;;
26062;SDS011;13837;48.562;12.108;2024-01-30T09:04:23;85.75;;;77.85;;
26062;SDS011;13837;48.562;12.108;2024-01-30T09:06:49;83.55;;;75.78;;
26062;SDS011;13837;48.562;12.108;2024-01-30T09:09:16;84.70;;;77.03;;
26062;SDS011;13837;48.562;12.108;2024-01-30T09:11:42;82.10;;;74.53;;
26062;SDS011;13837;48.562;12.108;2024-01-30T09:14:09;81.05;;;73.43;;
26062;SDS011;13837;48.562;12.108;2024-01-30T09:16:35;81.45;;;73.63;;
26062;SDS011;13837;48.562;12.108;2024-01-30T09:19:01;83.20;;;75.20;;
26062;SDS011;13837;48.562;12.108;2024-01-30T09:21:27;84.43;;;75.97;;
26062;SDS011;13837;48.562;12.108;2024-01-30T09:24:01;81.80;;;73.90;;
26062;SDS011;13837;48.562;12.108;2024-01-30T09:26:29;79.07;;;71.65;;
26062;SDS011;13837;48.562;12.108;2024-01-30T09:28:55;77.10;;;69.93;;
26062;SDS011;13837;48.562;12.108;2024-01-30T09:31:21;77.43;;;70.35;;
26062;SDS011;13837;48.562;12.108;2024-01-30T09:33:47;79.55;;;71.75;;
26062;SDS011;13837;48.562;12.108;2024-01-30T09:36:14;79.70;;;71.57;;
26062;SDS011;13837;48.562;12.108;2024-01-30T09:38:43;76.90;;;69.72;;
26062;SDS011;13837;48.562;12.108;2024-01-30T09:41:09;78.18;;;70.63;;
26062;SDS011;13837;48.562;12.108;2024-01-30T09:43:36;76.70;;;69.13;;
26062;SDS011;13837;48.562;12.108;2024-01-30T09:46:03;73.68;;;66.53;;
26062;SDS011;13837;48.562;12.108;2024-01-30T09:48:32;76.10;;;68.65;;
26062;SDS011;13837;48.562;12.108;2024-01-30T09:50:58;75.65;;;68.40;;
26062;SDS011;13837;48.562;12.108;2024-01-30T09:53:24;73.38;;;66.38;;
26062;SDS011;13837;48.562;12.108;2024-01-30T09:55:51;73.28;;;66.55;;
26062;SDS011;13837;48.562;12.108;2024-01-30T09:58:18;70.13;;;63.33;;
26062;SDS011;13837;48.562;12.108;2024-01-30T10:00:44;70.40;;;63.53;;
26062;SDS011;13837;48.562;12.108;2024-01-30T10:03:10;71.10;;;64.28;;
26062;SDS011;13837;48.562;12.108;2024-01-30T10:05:39;70.30;;;63.65;;
26062;SDS011;13837;48.562;12.108;2024-01-30T10:08:06;67.25;;;60.67;;
26062;SDS011;13837;48.562;12.108;2024-01-30T10:13:02;67.18;;;60.92;;
26062;SDS011;13837;48.562;12.108;2024-01-30T10:15:28;64.82;;;58.47;;
26062;SDS011;13837;48.562;12.108;2024-01-30T10:17:54;65.70;;;59.75;;
26062;SDS011;13837;48.562;12.108;2024-01-30T10:20:20;63.95;;;58.05;;
26062;SDS011;13837;48.562;12.108;2024-01-30T10:22:47;62.03;;;56.42;;
26062;SDS011;13837;48.562;12.108;2024-01-30T10:25:14;60.88;;;55.30;;
26062;SDS011;13837;48.562;12.108;2024-01-30T10:27:40;59.13;;;53.50;;
26062;SDS011;13837;48.562;12.108;2024-01-30T10:30:07;60.17;;;54.00;;
26062;SDS011;13837;48.562;12.108;2024-01-30T10:32:33;60.45;;;54.47;;
26062;SDS011;13837;48.562;12.108;2024-01-30T10:34:59;59.88;;;54.50;;
26062;SDS011;13837;48.562;12.108;2024-01-30T10:37:25;61.45;;;55.47;;
26062;SDS011;13837;48.562;12.108;2024-01-30T10:39:53;57.55;;;52.17;;
26062;SDS011;13837;48.562;12.108;2024-01-30T10:42:23;57.92;;;52.50;;
26062;SDS011;13837;48.562;12.108;2024-01-30T10:47:26;55.10;;;49.95;;
26062;SDS011;13837;48.562;12.108;2024-01-30T10:49:52;49.65;;;45.40;;
26062;SDS011;13837;48.562;12.108;2024-01-30T10:52:19;54.10;;;48.55;;
26062;SDS011;13837;48.562;12.108;2024-01-30T10:54:46;60.05;;;53.83;;
26062;SDS011;13837;48.562;12.108;2024-01-30T10:57:12;53.17;;;48.13;;
26062;SDS011;13837;48.562;12.108;2024-01-30T10:59:40;56.03;;;50.63;;
26062;SDS011;13837;48.562;12.108;2024-01-30T11:02:07;53.15;;;48.13;;
26062;SDS011;13837;48.562;12.108;2024-01-30T11:04:36;49.80;;;45.13;;
26062;SDS011;13837;48.562;12.108;2024-01-30T11:07:02;55.65;;;49.80;;
26062;SDS011;13837;48.562;12.108;2024-01-30T11:09:29;51.25;;;45.95;;
26062;SDS011;13837;48.562;12.108;2024-01-30T11:11:56;50.90;;;46.08;;
26062;SDS011;13837;48.562;12.108;2024-01-30T11:14:26;50.08;;;45.47;;
26062;SDS011;13837;48.562;12.108;2024-01-30T11:16:52;48.97;;;44.13;;
26062;SDS011;13837;48.562;12.108;2024-01-30T11:19:25;49.60;;;44.72;;
26062;SDS011;13837;48.562;12.108;2024-01-30T11:21:54;49.35;;;44.38;;
26062;SDS011;13837;48.562;12.108;2024-01-30T11:24:22;48.22;;;43.75;;
26062;SDS011;13837;48.562;12.108;2024-01-30T11:26:58;48.75;;;43.92;;
26062;SDS011;13837;48.562;12.108;2024-01-30T11:29:27;46.55;;;42.28;;
26062;SDS011;13837;48.562;12.108;2024-01-30T11:31:54;46.45;;;42.25;;
26062;SDS011;13837;48.562;12.108;2024-01-30T11:34:21;48.92;;;43.88;;
26062;SDS011;13837;48.562;12.108;2024-01-30T11:36:50;229.10;;;142.75;;
26062;SDS011;13837;48.562;12.108;2024-01-30T11:39:18;50.50;;;45.85;;
26062;SDS011;13837;48.562;12.108;2024-01-30T11:41:46;47.10;;;42.80;;
26062;SDS011;13837;48.562;12.108;2024-01-30T11:44:12;46.15;;;41.70;;
26062;SDS011;13837;48.562;12.108;2024-01-30T11:46:40;46.33;;;41.65;;
26062;SDS011;13837;48.562;12.108;2024-01-30T11:49:10;43.72;;;39.65;;
26062;SDS011;13837;48.562;12.108;2024-01-30T11:51:36;43.85;;;39.72;;
26062;SDS011;13837;48.562;12.108;2024-01-30T11:54:02;43.75;;;39.50;;
26062;SDS011;13837;48.562;12.108;2024-01-30T11:56:28;42.67;;;38.63;;
26062;SDS011;13837;48.562;12.108;2024-01-30T11:58:54;43.25;;;39.17;;
26062;SDS011;13837;48.562;12.108;2024-01-30T12:01:20;41.70;;;37.70;;
26062;SDS011;13837;48.562;12.108;2024-01-30T12:03:50;41.38;;;37.67;;
26062;SDS011;13837;48.562;12.108;2024-01-30T12:08:42;42.08;;;37.97;;
26062;SDS011;13837;48.562;12.108;2024-01-30T12:11:09;42.35;;;38.45;;
26062;SDS011;13837;48.562;12.108;2024-01-30T12:13:35;43.10;;;39.17;;
26062;SDS011;13837;48.562;12.108;2024-01-30T12:16:01;42.35;;;38.45;;
26062;SDS011;13837;48.562;12.108;2024-01-30T12:18:27;40.33;;;36.72;;
26062;SDS011;13837;48.562;12.108;2024-01-30T12:20:57;43.47;;;39.30;;
26062;SDS011;13837;48.562;12.108;2024-01-30T12:23:24;43.15;;;38.92;;
26062;SDS011;13837;48.562;12.108;2024-01-30T12:25:51;42.88;;;38.78;;
26062;SDS011;13837;48.562;12.108;2024-01-30T12:28:17;42.20;;;38.00;;
26062;SDS011;13837;48.562;12.108;2024-01-30T12:30:43;42.10;;;38.00;;
26062;SDS011;13837;48.562;12.108;2024-01-30T12:33:09;43.85;;;39.65;;
26062;SDS011;13837;48.562;12.108;2024-01-30T12:35:35;42.67;;;38.55;;
26062;SDS011;13837;48.562;12.108;2024-01-30T12:38:01;42.78;;;38.42;;
26062;SDS011;13837;48.562;12.108;2024-01-30T12:40:28;43.80;;;39.88;;
26062;SDS011;13837;48.562;12.108;2024-01-30T12:42:54;45.72;;;41.15;;
26062;SDS011;13837;48.562;12.108;2024-01-30T12:45:23;44.10;;;39.90;;
26062;SDS011;13837;48.562;12.108;2024-01-30T12:47:49;44.25;;;40.00;;
26062;SDS011;13837;48.562;12.108;2024-01-30T12:50:15;44.75;;;40.20;;
26062;SDS011;13837;48.562;12.108;2024-01-30T12:52:42;43.15;;;39.33;;
26062;SDS011;13837;48.562;12.108;2024-01-30T12:55:09;42.25;;;38.45;;
26062;SDS011;13837;48.562;12.108;2024-01-30T12:57:35;41.53;;;37.85;;
26062;SDS011;13837;48.562;12.108;2024-01-30T13:00:01;43.10;;;39.20;;
26062;SDS011;13837;48.562;12.108;2024-01-30T13:02:27;45.25;;;40.80;;
26062;SDS011;13837;48.562;12.108;2024-01-30T13:04:59;46.00;;;41.05;;
26062;SDS011;13837;48.562;12.108;2024-01-30T13:07:26;45.83;;;40.95;;
26062;SDS011;13837;48.562;12.108;2024-01-30T13:09:53;45.28;;;40.95;;
26062;SDS011;13837;48.562;12.108;2024-01-30T13:12:19;44.47;;;40.13;;
26062;SDS011;13837;48.562;12.108;2024-01-30T13:14:45;46.63;;;42.22;;
26062;SDS011;13837;48.562;12.108;2024-01-30T13:17:11;47.05;;;42.28;;
26062;SDS011;13837;48.562;12.108;2024-01-30T13:19:37;45.95;;;41.22;;
26062;SDS011;13837;48.562;12.108;2024-01-30T13:22:03;48.63;;;43.55;;
26062;SDS011;13837;48.562;12.108;2024-01-30T13:24:29;46.63;;;41.83;;
26062;SDS011;13837;48.562;12.108;2024-01-30T13:26:55;45.78;;;41.25;;
26062;SDS011;13837;48.562;12.108;2024-01-30T13:29:22;45.60;;;41.47;;
26062;SDS011;13837;48.562;12.108;2024-01-30T13:31:48;45.92;;;41.30;;
26062;SDS011;13837;48.562;12.108;2024-01-30T13:34:14;46.22;;;41.50;;
26062;SDS011;13837;48.562;12.108;2024-01-30T13:36:40;45.88;;;41.38;;
26062;SDS011;13837;48.562;12.108;2024-01-30T13:39:07;48.72;;;43.47;;
26062;SDS011;13837;48.562;12.108;2024-01-30T13:41:35;46.78;;;42.08;;
26062;SDS011;13837;48.562;12.108;2024-01-30T13:44:01;47.28;;;42.38;;
26062;SDS011;13837;48.562;12.108;2024-01-30T13:46:28;46.97;;;42.13;;
26062;SDS011;13837;48.562;12.108;2024-01-30T13:48:54;47.53;;;42.88;;
26062;SDS011;13837;48.562;12.108;2024-01-30T13:51:21;46.65;;;41.90;;
26062;SDS011;13837;48.562;12.108;2024-01-30T13:53:47;45.95;;;41.38;;
26062;SDS011;13837;48.562;12.108;2024-01-30T13:56:15;46.88;;;42.38;;
26062;SDS011;13837;48.562;12.108;2024-01-30T13:58:41;47.83;;;43.10;;
26062;SDS011;13837;48.562;12.108;2024-01-30T14:01:07;48.00;;;43.10;;
26062;SDS011;13837;48.562;12.108;2024-01-30T14:03:35;46.40;;;41.92;;
26062;SDS011;13837;48.562;12.108;2024-01-30T14:06:01;49.85;;;44.45;;
26062;SDS011;13837;48.562;12.108;2024-01-30T14:08:27;45.83;;;41.63;;
26062;SDS011;13837;48.562;12.108;2024-01-30T14:10:53;48.15;;;43.47;;